sensor_id;sensor_type;location;lat;lon;timestamp;pressure;altitude;pressure_sealevel;temperature;humidity
8051;BME280;4068;42.158;24.732;2022-09-09T00:01:27;99834.88;;;17.07;100.00
8051;BME280;4068;42.158;24.732;2022-09-09T00:09:19;99845.97;;;17.21;100.00
8051;BME280;4068;42.158;24.732;2022-09-09T00:14:39;99853.63;;;17.07;100.00
8051;BME280;4068;42.158;24.732;2022-09-09T00:17:13;99807.72;;;16.84;100.00
8051;BME280;4068;42.158;24.732;2022-09-09T00:19:51;99836.34;;;17.02;100.00
8051;BME280;4068;42.158;24.732;2022-09-09T00:22:22;99828.00;;;16.87;100.00
8051;BME280;4068;42.158;24.732;2022-09-09T00:24:52;99830.53;;;16.88;100.00
8051;BME280;4068;42.158;24.732;2022-09-09T00:27:41;99836.66;;;16.81;100.00
8051;BME280;4068;42.158;24.732;2022-09-09T00:30:20;99838.19;;;16.83;100.00
8051;BME280;4068;42.158;24.732;2022-09-09T00:33:11;99838.72;;;16.87;100.00
8051;BME280;4068;42.158;24.732;2022-09-09T00:35:45;99848.47;;;16.88;100.00
8051;BME280;4068;42.158;24.732;2022-09-09T00:38:19;99843.19;;;16.78;100.00
8051;BME280;4068;42.158;24.732;2022-09-09T00:40:52;99837.75;;;16.70;100.00
8051;BME280;4068;42.158;24.732;2022-09-09T00:43:26;99849.69;;;16.76;100.00
8051;BME280;4068;42.158;24.732;2022-09-09T00:47:12;99848.31;;;16.71;100.00
8051;BME280;4068;42.158;24.732;2022-09-09T00:49:31;99845.94;;;16.68;100.00
8051;BME280;4068;42.158;24.732;2022-09-09T00:57:37;99849.47;;;16.69;100.00
8051;BME280;4068;42.158;24.732;2022-09-09T01:08:00;99855.44;;;16.63;100.00
8051;BME280;4068;42.158;24.732;2022-09-09T01:13:23;99852.59;;;16.64;100.00
8051;BME280;4068;42.158;24.732;2022-09-09T01:15:50;99836.19;;;16.59;100.00
8051;BME280;4068;42.158;24.732;2022-09-09T01:18:21;99851.09;;;16.62;100.00
8051;BME280;4068;42.158;24.732;2022-09-09T01:26:48;99838.84;;;16.59;100.00
8051;BME280;4068;42.158;24.732;2022-09-09T01:29:17;99850.25;;;16.61;100.00
8051;BME280;4068;42.158;24.732;2022-09-09T01:34:22;99848.03;;;16.56;100.00
8051;BME280;4068;42.158;24.732;2022-09-09T01:36:58;99851.03;;;16.53;100.00
8051;BME280;4068;42.158;24.732;2022-09-09T01:39:25;99846.50;;;16.54;100.00
8051;BME280;4068;42.158;24.732;2022-09-09T01:41:52;99825.31;;;16.43;100.00
8051;BME280;4068;42.158;24.732;2022-09-09T01:44:18;99851.78;;;16.46;100.00
8051;BME280;4068;42.158;24.732;2022-09-09T01:46:44;99848.66;;;16.50;100.00
8051;BME280;4068;42.158;24.732;2022-09-09T01:49:10;99830.53;;;16.44;100.00
8051;BME280;4068;42.158;24.732;2022-09-09T01:51:38;99842.84;;;16.55;100.00
8051;BME280;4068;42.158;24.732;2022-09-09T01:54:04;99845.34;;;16.56;100.00
8051;BME280;4068;42.158;24.732;2022-09-09T02:02:09;99854.03;;;16.50;100.00
8051;BME280;4068;42.158;24.732;2022-09-09T02:04:43;99845.84;;;16.52;100.00
8051;BME280;4068;42.158;24.732;2022-09-09T02:10:05;99811.44;;;16.21;100.00
8051;BME280;4068;42.158;24.732;2022-09-09T02:12:34;99816.47;;;16.24;100.00
8051;BME280;4068;42.158;24.732;2022-09-09T02:15:07;99845.38;;;16.38;100.00
8051;BME280;4068;42.158;24.732;2022-09-09T02:17:36;99837.34;;;16.38;100.00
8051;BME280;4068;42.158;24.732;2022-09-09T02:20:08;99840.09;;;16.47;100.00
8051;BME280;4068;42.158;24.732;2022-09-09T02:22:37;99834.50;;;16.40;100.00
8051;BME280;4068;42.158;24.732;2022-09-09T02:25:06;99835.34;;;16.41;100.00
8051;BME280;4068;42.158;24.732;2022-09-09T02:27:33;99819.38;;;16.31;100.00
8051;BME280;4068;42.158;24.732;2022-09-09T02:29:59;99841.22;;;16.44;100.00
8051;BME280;4068;42.158;24.732;2022-09-09T02:32:29;99840.56;;;16.42;100.00
8051;BME280;4068;42.158;24.732;2022-09-09T02:35:05;99837.34;;;16.38;100.00
8051;BME280;4068;42.158;24.732;2022-09-09T02:37:36;99835.88;;;16.44;100.00
8051;BME280;4068;42.158;24.732;2022-09-09T02:40:03;99833.59;;;16.31;100.00
8051;BME280;4068;42.158;24.732;2022-09-09T02:42:29;99843.00;;;16.35;100.00
8051;BME280;4068;42.158;24.732;2022-09-09T02:44:55;99847.56;;;16.43;100.00
8051;BME280;4068;42.158;24.732;2022-09-09T02:53:20;99853.31;;;16.30;100.00
8051;BME280;4068;42.158;24.732;2022-09-09T02:55:48;99852.16;;;16.33;100.00
8051;BME280;4068;42.158;24.732;2022-09-09T02:58:18;99836.91;;;16.25;100.00
8051;BME280;4068;42.158;24.732;2022-09-09T03:00:48;99858.06;;;16.36;100.00
8051;BME280;4068;42.158;24.732;2022-09-09T03:03:15;99840.41;;;16.26;100.00
8051;BME280;4068;42.158;24.732;2022-09-09T03:05:42;99862.03;;;16.32;100.00
8051;BME280;4068;42.158;24.732;2022-09-09T03:08:08;99854.41;;;16.37;100.00
8051;BME280;4068;42.158;24.732;2022-09-09T03:10:34;99818.09;;;16.17;100.00
8051;BME280;4068;42.158;24.732;2022-09-09T03:13:00;99820.09;;;16.15;100.00
8051;BME280;4068;42.158;24.732;2022-09-09T03:15:26;99859.69;;;16.29;100.00
8051;BME280;4068;42.158;24.732;2022-09-09T03:17:55;99860.34;;;16.31;100.00
8051;BME280;4068;42.158;24.732;2022-09-09T03:20:22;99853.31;;;16.30;100.00
8051;BME280;4068;42.158;24.732;2022-09-09T03:22:48;99858.22;;;16.17;100.00
8051;BME280;4068;42.158;24.732;2022-09-09T03:25:13;99866.69;;;16.12;100.00
8051;BME280;4068;42.158;24.732;2022-09-09T03:27:39;99874.03;;;16.10;100.00
8051;BME280;4068;42.158;24.732;2022-09-09T03:30:05;99856.94;;;15.93;100.00
8051;BME280;4068;42.158;24.732;2022-09-09T03:32:31;99876.47;;;16.03;100.00
8051;BME280;4068;42.158;24.732;2022-09-09T03:34:57;99871.13;;;16.03;100.00
8051;BME280;4068;42.158;24.732;2022-09-09T03:37:22;99883.28;;;16.16;100.00
8051;BME280;4068;42.158;24.732;2022-09-09T03:39:48;99876.53;;;16.12;100.00
8051;BME280;4068;42.158;24.732;2022-09-09T03:42:14;99887.72;;;16.07;100.00
8051;BME280;4068;42.158;24.732;2022-09-09T03:44:40;99896.88;;;16.04;100.00
8051;BME280;4068;42.158;24.732;2022-09-09T03:47:07;99893.66;;;16.01;100.00
8051;BME280;4068;42.158;24.732;2022-09-09T03:49:32;99879.94;;;15.86;100.00
8051;BME280;4068;42.158;24.732;2022-09-09T03:51:58;99884.31;;;15.77;100.00
8051;BME280;4068;42.158;24.732;2022-09-09T03:54:24;99886.47;;;15.74;100.00
8051;BME280;4068;42.158;24.732;2022-09-09T03:56:50;99884.78;;;15.73;100.00
8051;BME280;4068;42.158;24.732;2022-09-09T03:59:15;99859.16;;;15.52;100.00
8051;BME280;4068;42.158;24.732;2022-09-09T04:01:41;99869.19;;;15.68;100.00
8051;BME280;4068;42.158;24.732;2022-09-09T04:04:07;99868.16;;;15.79;100.00
8051;BME280;4068;42.158;24.732;2022-09-09T04:06:34;99886.72;;;15.80;100.00
8051;BME280;4068;42.158;24.732;2022-09-09T04:08:59;99859.03;;;15.71;100.00
8051;BME280;4068;42.158;24.732;2022-09-09T04:11:28;99882.19;;;15.91;100.00
8051;BME280;4068;42.158;24.732;2022-09-09T04:13:54;99885.69;;;15.91;100.00
8051;BME280;4068;42.158;24.732;2022-09-09T04:16:19;99877.53;;;15.93;100.00
8051;BME280;4068;42.158;24.732;2022-09-09T04:18:45;99877.06;;;15.97;100.00
8051;BME280;4068;42.158;24.732;2022-09-09T04:21:11;99871.81;;;16.05;100.00
8051;BME280;4068;42.158;24.732;2022-09-09T04:23:38;99851.59;;;15.93;100.00
8051;BME280;4068;42.158;24.732;2022-09-09T04:26:04;99850.25;;;16.07;100.00
8051;BME280;4068;42.158;24.732;2022-09-09T04:28:33;99870.28;;;16.21;100.00
8051;BME280;4068;42.158;24.732;2022-09-09T04:31:13;99872.34;;;16.27;100.00
8051;BME280;4068;42.158;24.732;2022-09-09T04:33:39;99870.06;;;16.50;100.00
8051;BME280;4068;42.158;24.732;2022-09-09T04:36:05;99863.50;;;16.45;100.00
8051;BME280;4068;42.158;24.732;2022-09-09T04:38:31;99875.63;;;16.57;100.00
8051;BME280;4068;42.158;24.732;2022-09-09T04:40:56;99869.38;;;16.66;100.00
8051;BME280;4068;42.158;24.732;2022-09-09T04:43:22;99887.66;;;16.89;100.00
8051;BME280;4068;42.158;24.732;2022-09-09T04:45:49;99894.41;;;17.01;100.00
8051;BME280;4068;42.158;24.732;2022-09-09T04:48:15;99905.53;;;17.06;100.00
8051;BME280;4068;42.158;24.732;2022-09-09T04:50:40;99913.41;;;17.08;100.00
8051;BME280;4068;42.158;24.732;2022-09-09T04:53:06;99908.09;;;17.16;100.00
8051;BME280;4068;42.158;24.732;2022-09-09T04:55:32;99894.53;;;17.18;100.00
8051;BME280;4068;42.158;24.732;2022-09-09T04:58:06;99920.84;;;17.22;100.00
8051;BME280;4068;42.158;24.732;2022-09-09T05:00:33;99924.25;;;17.24;100.00
8051;BME280;4068;42.158;24.732;2022-09-09T05:03:03;99911.34;;;17.28;100.00
8051;BME280;4068;42.158;24.732;2022-09-09T05:05:29;99910.56;;;17.36;100.00
8051;BME280;4068;42.158;24.732;2022-09-09T05:08:03;99883.19;;;17.24;100.00
8051;BME280;4068;42.158;24.732;2022-09-09T05:10:30;99922.38;;;17.51;100.00
8051;BME280;4068;42.158;24.732;2022-09-09T05:12:55;99900.19;;;17.41;100.00
8051;BME280;4068;42.158;24.732;2022-09-09T05:15:21;99887.66;;;17.50;100.00
8051;BME280;4068;42.158;24.732;2022-09-09T05:17:46;99917.31;;;17.74;100.00
8051;BME280;4068;42.158;24.732;2022-09-09T05:20:12;99917.31;;;17.74;100.00
8051;BME280;4068;42.158;24.732;2022-09-09T05:22:38;99908.44;;;17.82;100.00
8051;BME280;4068;42.158;24.732;2022-09-09T05:25:04;99904.94;;;17.82;100.00
8051;BME280;4068;42.158;24.732;2022-09-09T05:27:29;99904.22;;;17.80;100.00
8051;BME280;4068;42.158;24.732;2022-09-09T05:29:57;99894.31;;;17.72;100.00
8051;BME280;4068;42.158;24.732;2022-09-09T05:32:22;99909.25;;;17.74;100.00
8051;BME280;4068;42.158;24.732;2022-09-09T05:34:49;99910.19;;;17.91;100.00
8051;BME280;4068;42.158;24.732;2022-09-09T05:37:15;99904.34;;;17.96;100.00
8051;BME280;4068;42.158;24.732;2022-09-09T05:39:41;99919.78;;;18.02;100.00
8051;BME280;4068;42.158;24.732;2022-09-09T05:42:07;99911.09;;;18.17;100.00
8051;BME280;4068;42.158;24.732;2022-09-09T05:44:32;99884.38;;;17.99;100.00
8051;BME280;4068;42.158;24.732;2022-09-09T05:46:58;99918.50;;;18.23;100.00
8051;BME280;4068;42.158;24.732;2022-09-09T05:49:24;99892.47;;;18.15;100.00
8051;BME280;4068;42.158;24.732;2022-09-09T05:51:49;99910.81;;;18.44;100.00
8051;BME280;4068;42.158;24.732;2022-09-09T05:54:16;99887.28;;;18.38;100.00
8051;BME280;4068;42.158;24.732;2022-09-09T05:56:42;99917.53;;;18.57;100.00
8051;BME280;4068;42.158;24.732;2022-09-09T05:59:07;99922.25;;;18.71;100.00
8051;BME280;4068;42.158;24.732;2022-09-09T06:01:35;99914.19;;;18.79;100.00
8051;BME280;4068;42.158;24.732;2022-09-09T06:04:01;99904.47;;;18.87;99.80
8051;BME280;4068;42.158;24.732;2022-09-09T06:06:31;99905.00;;;18.99;100.00
8051;BME280;4068;42.158;24.732;2022-09-09T06:08:57;99887.66;;;19.18;100.00
8051;BME280;4068;42.158;24.732;2022-09-09T06:11:25;99858.94;;;19.10;99.24
8051;BME280;4068;42.158;24.732;2022-09-09T06:13:51;99896.31;;;19.44;96.46
8051;BME280;4068;42.158;24.732;2022-09-09T06:16:21;99864.59;;;19.40;95.13
8051;BME280;4068;42.158;24.732;2022-09-09T06:18:48;99891.19;;;19.66;93.16
8051;BME280;4068;42.158;24.732;2022-09-09T06:21:22;99861.34;;;19.53;93.84
8051;BME280;4068;42.158;24.732;2022-09-09T06:23:48;99891.19;;;19.82;93.13
8051;BME280;4068;42.158;24.732;2022-09-09T06:26:18;99887.81;;;19.80;92.71
8051;BME280;4068;42.158;24.732;2022-09-09T06:28:48;99882.88;;;19.92;91.35
8051;BME280;4068;42.158;24.732;2022-09-09T06:31:17;99884.50;;;20.02;91.77
8051;BME280;4068;42.158;24.732;2022-09-09T06:33:43;99860.22;;;19.87;91.74
8051;BME280;4068;42.158;24.732;2022-09-09T06:36:13;99889.50;;;20.13;90.48
8051;BME280;4068;42.158;24.732;2022-09-09T06:38:40;99893.97;;;20.21;90.57
8051;BME280;4068;42.158;24.732;2022-09-09T06:41:05;99902.84;;;20.29;90.20
8051;BME280;4068;42.158;24.732;2022-09-09T06:43:31;99911.91;;;20.37;90.89
8051;BME280;4068;42.158;24.732;2022-09-09T06:46:00;99898.69;;;20.50;89.56
8051;BME280;4068;42.158;24.732;2022-09-09T06:48:26;99885.25;;;20.42;89.78
8051;BME280;4068;42.158;24.732;2022-09-09T06:53:27;99890.91;;;20.55;90.70
8051;BME280;4068;42.158;24.732;2022-09-09T06:55:53;99907.31;;;20.68;90.39
8051;BME280;4068;42.158;24.732;2022-09-09T06:58:20;99894.63;;;20.77;88.84
8051;BME280;4068;42.158;24.732;2022-09-09T07:00:47;99906.16;;;20.86;88.87
8051;BME280;4068;42.158;24.732;2022-09-09T07:03:13;99903.50;;;21.01;88.16
8051;BME280;4068;42.158;24.732;2022-09-09T07:05:38;99897.94;;;21.02;87.81
8051;BME280;4068;42.158;24.732;2022-09-09T07:08:03;99901.28;;;21.04;87.93
8051;BME280;4068;42.158;24.732;2022-09-09T07:10:29;99900.63;;;21.17;87.38
8051;BME280;4068;42.158;24.732;2022-09-09T07:12:54;99900.19;;;21.29;86.89
8051;BME280;4068;42.158;24.732;2022-09-09T07:15:20;99896.31;;;21.46;86.69
8051;BME280;4068;42.158;24.732;2022-09-09T07:17:48;99893.34;;;21.56;86.40
8051;BME280;4068;42.158;24.732;2022-09-09T07:20:14;99892.78;;;21.76;84.68
8051;BME280;4068;42.158;24.732;2022-09-09T07:22:40;99892.09;;;21.88;83.37
8051;BME280;4068;42.158;24.732;2022-09-09T07:25:06;99896.00;;;22.01;83.00
8051;BME280;4068;42.158;24.732;2022-09-09T07:27:32;99879.13;;;21.99;83.31
8051;BME280;4068;42.158;24.732;2022-09-09T07:29:58;99896.53;;;22.11;82.99
8051;BME280;4068;42.158;24.732;2022-09-09T07:32:23;99908.75;;;22.29;82.90
8051;BME280;4068;42.158;24.732;2022-09-09T07:34:50;99876.34;;;22.29;81.91
8051;BME280;4068;42.158;24.732;2022-09-09T07:37:16;99898.25;;;22.55;80.55
8051;BME280;4068;42.158;24.732;2022-09-09T07:39:42;99899.47;;;22.53;80.37
8051;BME280;4068;42.158;24.732;2022-09-09T07:42:07;99898.41;;;22.69;80.83
8051;BME280;4068;42.158;24.732;2022-09-09T07:44:34;99881.78;;;22.72;79.26
8051;BME280;4068;42.158;24.732;2022-09-09T07:47:01;99861.88;;;22.80;79.01
8051;BME280;4068;42.158;24.732;2022-09-09T07:49:27;99886.31;;;23.15;78.14
8051;BME280;4068;42.158;24.732;2022-09-09T07:51:53;99867.56;;;23.13;77.28
8051;BME280;4068;42.158;24.732;2022-09-09T07:54:19;99882.34;;;23.17;77.19
8051;BME280;4068;42.158;24.732;2022-09-09T07:56:46;99874.06;;;23.19;77.28
8051;BME280;4068;42.158;24.732;2022-09-09T07:59:12;99877.84;;;23.24;76.72
8051;BME280;4068;42.158;24.732;2022-09-09T08:01:44;99874.19;;;23.39;76.17
8051;BME280;4068;42.158;24.732;2022-09-09T08:04:16;99876.22;;;23.72;74.69
8051;BME280;4068;42.158;24.732;2022-09-09T08:06:48;99873.41;;;23.93;72.44
8051;BME280;4068;42.158;24.732;2022-09-09T08:09:14;99845.28;;;24.01;71.29
8051;BME280;4068;42.158;24.732;2022-09-09T08:11:41;99861.41;;;24.16;70.79
8051;BME280;4068;42.158;24.732;2022-09-09T08:14:08;99858.09;;;24.41;70.55
8051;BME280;4068;42.158;24.732;2022-09-09T08:16:40;99864.00;;;24.71;69.94
8051;BME280;4068;42.158;24.732;2022-09-09T08:19:06;99866.91;;;25.03;69.02
8051;BME280;4068;42.158;24.732;2022-09-09T08:21:33;99859.97;;;25.27;65.74
8051;BME280;4068;42.158;24.732;2022-09-09T08:24:00;99838.91;;;25.23;64.76
8051;BME280;4068;42.158;24.732;2022-09-09T08:26:30;99861.25;;;25.31;66.13
8051;BME280;4068;42.158;24.732;2022-09-09T08:28:57;99829.28;;;25.33;64.77
8051;BME280;4068;42.158;24.732;2022-09-09T08:31:34;99819.66;;;25.38;64.25
8051;BME280;4068;42.158;24.732;2022-09-09T08:34:01;99836.38;;;25.35;63.82
8051;BME280;4068;42.158;24.732;2022-09-09T08:36:29;99853.47;;;25.42;64.44
8051;BME280;4068;42.158;24.732;2022-09-09T08:38:56;99851.72;;;25.67;63.36
8051;BME280;4068;42.158;24.732;2022-09-09T08:52:00;99834.13;;;26.47;60.92
8051;BME280;4068;42.158;24.732;2022-09-09T08:54:33;99829.75;;;26.46;60.24
8051;BME280;4068;42.158;24.732;2022-09-09T08:57:01;99815.72;;;25.86;60.88
8051;BME280;4068;42.158;24.732;2022-09-09T08:59:26;99830.03;;;26.06;60.96
8051;BME280;4068;42.158;24.732;2022-09-09T09:04:56;99834.59;;;26.44;60.80
8051;BME280;4068;42.158;24.732;2022-09-09T09:12:48;99823.66;;;26.51;58.87
8051;BME280;4068;42.158;24.732;2022-09-09T09:15:19;99821.47;;;26.34;59.14
8051;BME280;4068;42.158;24.732;2022-09-09T09:17:46;99817.22;;;26.45;59.63
8051;BME280;4068;42.158;24.732;2022-09-09T09:20:14;99803.50;;;26.59;60.28
8051;BME280;4068;42.158;24.732;2022-09-09T09:22:54;99811.97;;;26.76;58.94
8051;BME280;4068;42.158;24.732;2022-09-09T09:25:27;99791.66;;;26.78;58.77
8051;BME280;4068;42.158;24.732;2022-09-09T09:30:41;99762.78;;;26.77;57.70
8051;BME280;4068;42.158;24.732;2022-09-09T09:36:07;99768.91;;;26.91;57.63
8051;BME280;4068;42.158;24.732;2022-09-09T09:38:34;99779.66;;;27.04;56.64
8051;BME280;4068;42.158;24.732;2022-09-09T09:41:00;99768.16;;;26.84;57.50
8051;BME280;4068;42.158;24.732;2022-09-09T09:43:33;99773.69;;;26.96;57.74
8051;BME280;4068;42.158;24.732;2022-09-09T09:45:59;99762.34;;;26.99;58.02
8051;BME280;4068;42.158;24.732;2022-09-09T09:48:26;99763.72;;;26.90;57.01
8051;BME280;4068;42.158;24.732;2022-09-09T09:50:59;99767.47;;;26.70;58.53
8051;BME280;4068;42.158;24.732;2022-09-09T09:53:32;99769.81;;;26.85;57.70
8051;BME280;4068;42.158;24.732;2022-09-09T09:56:09;99761.09;;;26.76;57.74
8051;BME280;4068;42.158;24.732;2022-09-09T10:01:42;99762.31;;;26.80;58.50
8051;BME280;4068;42.158;24.732;2022-09-09T10:04:19;99747.00;;;26.86;57.52
8051;BME280;4068;42.158;24.732;2022-09-09T10:06:46;99738.75;;;27.11;57.72
8051;BME280;4068;42.158;24.732;2022-09-09T10:09:22;99741.22;;;27.31;57.83
8051;BME280;4068;42.158;24.732;2022-09-09T10:36:57;99711.00;;;28.12;55.65
8051;BME280;4068;42.158;24.732;2022-09-09T10:39:37;99719.66;;;28.45;55.65
8051;BME280;4068;42.158;24.732;2022-09-09T10:42:12;99718.97;;;28.49;56.13
8051;BME280;4068;42.158;24.732;2022-09-09T10:47:35;99722.16;;;28.58;54.80
8051;BME280;4068;42.158;24.732;2022-09-09T10:56:11;99717.41;;;28.41;54.92
8051;BME280;4068;42.158;24.732;2022-09-09T11:01:25;99707.44;;;28.47;55.39
8051;BME280;4068;42.158;24.732;2022-09-09T11:04:01;99708.03;;;28.73;54.84
8051;BME280;4068;42.158;24.732;2022-09-09T11:06:32;99676.84;;;28.81;53.84
8051;BME280;4068;42.158;24.732;2022-09-09T11:09:02;99686.09;;;28.80;53.33
8051;BME280;4068;42.158;24.732;2022-09-09T11:11:46;99675.66;;;28.77;53.77
8051;BME280;4068;42.158;24.732;2022-09-09T11:14:22;99677.13;;;29.08;53.79
8051;BME280;4068;42.158;24.732;2022-09-09T11:16:56;99690.88;;;29.25;53.63
8051;BME280;4068;42.158;24.732;2022-09-09T11:22:05;99669.75;;;29.49;52.70
8051;BME280;4068;42.158;24.732;2022-09-09T11:24:38;99681.63;;;29.72;52.11
8051;BME280;4068;42.158;24.732;2022-09-09T11:27:14;99667.72;;;29.73;52.06
8051;BME280;4068;42.158;24.732;2022-09-09T11:37:21;99658.34;;;29.23;52.86
8051;BME280;4068;42.158;24.732;2022-09-09T11:39:57;99657.66;;;29.45;52.18
8051;BME280;4068;42.158;24.732;2022-09-09T11:42:29;99661.81;;;29.48;52.87
8051;BME280;4068;42.158;24.732;2022-09-09T11:44:55;99668.19;;;29.53;52.61
8051;BME280;4068;42.158;24.732;2022-09-09T11:47:28;99668.31;;;29.92;51.79
8051;BME280;4068;42.158;24.732;2022-09-09T11:50:10;99656.06;;;30.12;50.72
8051;BME280;4068;42.158;24.732;2022-09-09T11:52:42;99658.78;;;30.68;48.83
8051;BME280;4068;42.158;24.732;2022-09-09T11:55:28;99645.63;;;31.37;48.12
8051;BME280;4068;42.158;24.732;2022-09-09T11:58:32;99618.69;;;31.88;46.97
8051;BME280;4068;42.158;24.732;2022-09-09T12:00:50;99649.94;;;32.20;44.97
8051;BME280;4068;42.158;24.732;2022-09-09T12:03:43;99639.13;;;32.08;44.68
8051;BME280;4068;42.158;24.732;2022-09-09T12:06:25;99627.09;;;31.76;46.28
8051;BME280;4068;42.158;24.732;2022-09-09T12:08:56;99611.66;;;31.65;46.03
8051;BME280;4068;42.158;24.732;2022-09-09T12:11:27;99611.50;;;32.14;45.08
8051;BME280;4068;42.158;24.732;2022-09-09T12:13:58;99603.50;;;32.56;43.98
8051;BME280;4068;42.158;24.732;2022-09-09T12:16:33;99615.69;;;32.75;44.07
8051;BME280;4068;42.158;24.732;2022-09-09T12:19:19;99618.88;;;32.62;43.92
8051;BME280;4068;42.158;24.732;2022-09-09T12:21:51;99610.91;;;32.60;44.42
8051;BME280;4068;42.158;24.732;2022-09-09T12:24:30;99612.28;;;32.52;44.70
8051;BME280;4068;42.158;24.732;2022-09-09T12:27:21;99608.38;;;32.00;45.21
8051;BME280;4068;42.158;24.732;2022-09-09T12:29:57;99601.41;;;31.82;45.52
8051;BME280;4068;42.158;24.732;2022-09-09T12:32:27;99584.44;;;31.91;45.06
8051;BME280;4068;42.158;24.732;2022-09-09T12:35:03;99595.38;;;31.86;45.64
8051;BME280;4068;42.158;24.732;2022-09-09T12:37:39;99595.94;;;31.88;44.96
8051;BME280;4068;42.158;24.732;2022-09-09T12:40:29;99595.72;;;31.99;45.65
8051;BME280;4068;42.158;24.732;2022-09-09T12:42:56;99597.56;;;32.21;45.80
8051;BME280;4068;42.158;24.732;2022-09-09T12:45:24;99589.06;;;32.28;46.66
8051;BME280;4068;42.158;24.732;2022-09-09T12:47:58;99569.09;;;31.90;46.36
8051;BME280;4068;42.158;24.732;2022-09-09T12:50:31;99585.47;;;32.22;46.15
8051;BME280;4068;42.158;24.732;2022-09-09T12:53:00;99575.41;;;32.33;47.16
8051;BME280;4068;42.158;24.732;2022-09-09T12:55:36;99570.91;;;32.16;46.64
8051;BME280;4068;42.158;24.732;2022-09-09T12:58:04;99577.13;;;32.07;46.18
8051;BME280;4068;42.158;24.732;2022-09-09T13:00:32;99577.13;;;32.55;45.25
8051;BME280;4068;42.158;24.732;2022-09-09T13:03:03;99566.72;;;32.62;44.71
8051;BME280;4068;42.158;24.732;2022-09-09T13:05:39;99553.22;;;32.40;45.71
8051;BME280;4068;42.158;24.732;2022-09-09T13:08:08;99541.91;;;32.31;44.77
8051;BME280;4068;42.158;24.732;2022-09-09T13:10:47;99568.25;;;32.32;45.52
8051;BME280;4068;42.158;24.732;2022-09-09T13:13:16;99546.09;;;32.44;45.50
8051;BME280;4068;42.158;24.732;2022-09-09T13:15:51;99549.72;;;32.65;45.14
8051;BME280;4068;42.158;24.732;2022-09-09T13:18:22;99552.28;;;32.82;44.88
8051;BME280;4068;42.158;24.732;2022-09-09T13:20:49;99552.59;;;33.01;44.81
8051;BME280;4068;42.158;24.732;2022-09-09T13:23:16;99542.44;;;33.01;43.69
8051;BME280;4068;42.158;24.732;2022-09-09T13:28:22;99549.22;;;32.73;44.00
8051;BME280;4068;42.158;24.732;2022-09-09T13:31:18;99546.91;;;32.44;44.83
8051;BME280;4068;42.158;24.732;2022-09-09T13:33:45;99551.88;;;32.47;44.32
8051;BME280;4068;42.158;24.732;2022-09-09T13:36:11;99534.78;;;32.35;45.10
8051;BME280;4068;42.158;24.732;2022-09-09T13:41:08;99519.09;;;31.72;45.85
8051;BME280;4068;42.158;24.732;2022-09-09T13:43:38;99527.56;;;31.71;46.05
8051;BME280;4068;42.158;24.732;2022-09-09T13:46:32;99529.00;;;31.78;46.57
8051;BME280;4068;42.158;24.732;2022-09-09T13:49:01;99518.25;;;31.72;46.41
8051;BME280;4068;42.158;24.732;2022-09-09T13:51:41;99521.06;;;31.82;46.77
8051;BME280;4068;42.158;24.732;2022-09-09T13:54:09;99522.72;;;31.83;46.91
8051;BME280;4068;42.158;24.732;2022-09-09T13:56:37;99515.84;;;31.80;47.66
8051;BME280;4068;42.158;24.732;2022-09-09T13:59:04;99513.69;;;31.88;47.62
8051;BME280;4068;42.158;24.732;2022-09-09T14:01:29;99506.31;;;31.93;48.29
8051;BME280;4068;42.158;24.732;2022-09-09T14:03:55;99498.41;;;31.97;47.65
8051;BME280;4068;42.158;24.732;2022-09-09T14:06:21;99514.31;;;32.05;46.76
8051;BME280;4068;42.158;24.732;2022-09-09T14:08:48;99513.41;;;31.84;47.34
8051;BME280;4068;42.158;24.732;2022-09-09T14:11:15;99508.63;;;31.64;47.39
8051;BME280;4068;42.158;24.732;2022-09-09T14:13:41;99508.44;;;31.43;47.44
8051;BME280;4068;42.158;24.732;2022-09-09T14:16:06;99505.75;;;31.16;49.41
8051;BME280;4068;42.158;24.732;2022-09-09T14:18:32;99508.28;;;30.95;49.28
8051;BME280;4068;42.158;24.732;2022-09-09T14:20:58;99508.91;;;30.75;50.71
8051;BME280;4068;42.158;24.732;2022-09-09T14:23:24;99483.81;;;30.56;50.56
8051;BME280;4068;42.158;24.732;2022-09-09T14:25:49;99510.31;;;30.34;52.23
8051;BME280;4068;42.158;24.732;2022-09-09T14:28:15;99505.03;;;30.27;52.76
8051;BME280;4068;42.158;24.732;2022-09-09T14:30:42;99507.22;;;30.25;53.17
8051;BME280;4068;42.158;24.732;2022-09-09T14:33:11;99499.19;;;30.18;53.65
8051;BME280;4068;42.158;24.732;2022-09-09T14:35:36;99493.25;;;30.43;52.68
8051;BME280;4068;42.158;24.732;2022-09-09T14:38:04;99491.66;;;30.48;53.00
8051;BME280;4068;42.158;24.732;2022-09-09T14:40:30;99507.19;;;30.69;52.07
8051;BME280;4068;42.158;24.732;2022-09-09T14:42:56;99502.97;;;30.84;51.35
8051;BME280;4068;42.158;24.732;2022-09-09T14:45:23;99493.72;;;30.90;50.31
8051;BME280;4068;42.158;24.732;2022-09-09T14:47:50;99497.09;;;30.97;49.16
8051;BME280;4068;42.158;24.732;2022-09-09T14:50:16;99489.06;;;30.90;49.93
8051;BME280;4068;42.158;24.732;2022-09-09T14:52:41;99494.47;;;30.80;50.13
8051;BME280;4068;42.158;24.732;2022-09-09T14:55:07;99478.59;;;30.82;49.66
8051;BME280;4068;42.158;24.732;2022-09-09T14:57:32;99486.97;;;30.70;50.07
8051;BME280;4068;42.158;24.732;2022-09-09T15:00:00;99472.19;;;30.71;50.05
8051;BME280;4068;42.158;24.732;2022-09-09T15:02:25;99490.53;;;30.71;50.62
8051;BME280;4068;42.158;24.732;2022-09-09T15:04:50;99487.63;;;30.55;52.07
8051;BME280;4068;42.158;24.732;2022-09-09T15:07:17;99488.84;;;30.42;52.42
8051;BME280;4068;42.158;24.732;2022-09-09T15:09:44;99483.78;;;30.34;53.05
8051;BME280;4068;42.158;24.732;2022-09-09T15:12:10;99479.94;;;30.30;52.82
8051;BME280;4068;42.158;24.732;2022-09-09T15:14:35;99493.34;;;30.32;52.26
8051;BME280;4068;42.158;24.732;2022-09-09T15:17:00;99493.03;;;30.06;52.85
8051;BME280;4068;42.158;24.732;2022-09-09T15:19:26;99489.16;;;30.02;53.38
8051;BME280;4068;42.158;24.732;2022-09-09T15:21:51;99460.09;;;29.78;53.61
8051;BME280;4068;42.158;24.732;2022-09-09T15:24:17;99485.63;;;29.84;53.77
8051;BME280;4068;42.158;24.732;2022-09-09T15:26:42;99469.09;;;29.57;54.61
8051;BME280;4068;42.158;24.732;2022-09-09T15:29:08;99458.66;;;29.54;53.38